Mission, Arizona
Current Conditions -  °F | °C
As of 2:58 PM on Wednesday 28 Jan 2015 (Local Time) from KDMA Reporting Station
Clear Clear  
Wind Chill: 73°   Ceiling: Unl
Heat Index: 73°   Visibility: 10mi
Dew Point: 43°   Wind: 6mph
Humidity: 34%   Direction: 300°WNW
Pressure: 30.07"   Gusts: NA
Location:  32.1206°N, 110.871°W
Report Text: KDMA 282158Z AUTO 30005KT 10SM CLR 23/06 A3007 RMK AO2 SLP159 T02280063 $
Loading
Personal Weather Stations






























Interactive Weather Map New forecast layout! Learn more

10-Day Weather Forecast

Advertisements
Track Severe Weather on mobile